createdAt,value
2018-03-23T22:13:17.635Z,94486
2018-03-23T22:15:48.163Z,94477
2018-03-23T22:18:17.558Z,94472
2018-03-23T22:20:47.687Z,94464
2018-03-23T22:23:16.915Z,94463
2018-03-23T22:25:46.251Z,94464
2018-03-23T22:28:15.708Z,94455
2018-03-23T22:30:45.193Z,94457
2018-03-23T22:33:14.441Z,94462
2018-03-23T22:35:43.979Z,94456
2018-03-23T22:38:14.302Z,94445
2018-03-23T22:40:43.891Z,94450
2018-03-23T22:43:13.400Z,94438
2018-03-23T22:45:42.860Z,94438
2018-03-23T22:48:12.363Z,94445
2018-03-23T22:50:41.663Z,94442
2018-03-23T22:53:11.216Z,94429
2018-03-23T22:55:41.234Z,94437
2018-03-23T22:58:10.483Z,94428
2018-03-23T23:00:40.062Z,94432
2018-03-23T23:03:09.699Z,94440
2018-03-23T23:05:39.178Z,94443
2018-03-23T23:08:08.303Z,94434
2018-03-23T23:10:37.857Z,94436
2018-03-23T23:13:07.171Z,94420
2018-03-23T23:15:36.440Z,94432
2018-03-23T23:18:06.160Z,94441
2018-03-23T23:20:35.354Z,94420
2018-03-23T23:23:04.858Z,94416
2018-03-23T23:25:34.185Z,94409
2018-03-23T23:28:03.497Z,94419
2018-03-23T23:30:33.737Z,94412
2018-03-23T23:33:03.359Z,94404
2018-03-23T23:35:32.782Z,94398
2018-03-23T23:38:01.996Z,94406
2018-03-23T23:40:31.643Z,94395
2018-03-23T23:43:02.185Z,94398
2018-03-23T23:45:31.722Z,94398
2018-03-23T23:48:01.066Z,94395
2018-03-23T23:50:30.260Z,94390
2018-03-23T23:53:00.530Z,94387
2018-03-23T23:55:29.716Z,94380
2018-03-23T23:57:59.104Z,94381
